createdAt,value
2022-11-25T00:00:23.178Z,23.60
2022-11-25T00:02:51.281Z,34.23
2022-11-25T00:05:20.675Z,31.63
2022-11-25T00:07:48.643Z,24.30
2022-11-25T00:10:16.646Z,24.73
2022-11-25T00:12:44.510Z,36.67
2022-11-25T00:15:12.520Z,22.07
2022-11-25T00:17:40.386Z,21.03
2022-11-25T00:20:09.448Z,36.07
2022-11-25T00:22:38.753Z,21.07
2022-11-25T00:25:07.490Z,34.90
2022-11-25T00:27:35.398Z,22.53
2022-11-25T00:30:03.308Z,18.23
2022-11-25T00:32:31.174Z,12.10
2022-11-25T00:34:59.019Z,14.23
2022-11-25T00:37:26.969Z,11.07
2022-11-25T00:39:56.259Z,23.37
2022-11-25T00:42:41.659Z,18.07
2022-11-25T00:45:10.435Z,17.67
2022-11-25T00:47:38.287Z,18.90
2022-11-25T00:50:07.504Z,25.73
2022-11-25T00:52:37.093Z,20.70
2022-11-25T00:55:07.045Z,17.60
2022-11-25T00:57:34.947Z,15.90
2022-11-25T01:00:02.810Z,25.27
2022-11-25T01:02:30.765Z,17.50
2022-11-25T01:04:58.847Z,15.93
2022-11-25T01:07:26.941Z,19.40
2022-11-25T01:09:54.814Z,20.57
2022-11-25T01:12:24.109Z,17.53
2022-11-25T01:14:52.044Z,22.60
2022-11-25T01:17:19.943Z,26.27
2022-11-25T01:19:48.972Z,18.53
2022-11-25T01:22:16.883Z,23.93
2022-11-25T01:24:44.711Z,16.70
2022-11-25T01:27:12.580Z,22.30
2022-11-25T01:29:43.040Z,14.97
2022-11-25T01:32:10.867Z,15.40
2022-11-25T01:34:39.029Z,23.13
2022-11-25T01:37:06.939Z,18.43
2022-11-25T01:39:34.794Z,24.67
2022-11-25T01:42:02.711Z,26.00
2022-11-25T01:44:30.759Z,23.97
2022-11-25T01:47:02.296Z,16.50
2022-11-25T01:49:36.372Z,17.40
2022-11-25T01:52:07.735Z,19.17
2022-11-25T01:54:37.850Z,22.70
2022-11-25T01:57:07.778Z,24.13
2022-11-25T01:59:36.358Z,18.73
2022-11-25T02:02:05.720Z,20.23
2022-11-25T02:04:35.158Z,21.57
2022-11-25T02:07:05.370Z,23.23
2022-11-25T02:09:33.295Z,18.13
2022-11-25T02:12:01.153Z,17.13
2022-11-25T02:14:29.059Z,15.37
2022-11-25T02:16:56.923Z,21.90
2022-11-25T02:19:37.869Z,15.13
2022-11-25T02:22:06.050Z,21.27
2022-11-25T02:24:36.126Z,15.83
2022-11-25T02:27:05.468Z,18.47
2022-11-25T02:29:33.521Z,26.47
2022-11-25T02:32:01.401Z,22.50
2022-11-25T02:34:29.299Z,16.10
2022-11-25T02:36:57.139Z,20.37
2022-11-25T02:39:25.042Z,28.37
2022-11-25T02:41:54.149Z,7.83
2022-11-25T02:44:23.454Z,16.30
2022-11-25T02:46:51.340Z,10.67
2022-11-25T02:49:19.202Z,9.30
2022-11-25T02:51:47.194Z,13.10
2022-11-25T02:54:15.586Z,11.70
2022-11-25T02:56:43.446Z,5.47
2022-11-25T02:59:11.391Z,12.93
2022-11-25T03:01:40.719Z,8.40
2022-11-25T03:04:08.672Z,5.80
2022-11-25T03:06:36.541Z,16.93
2022-11-25T03:09:04.436Z,23.23
2022-11-25T03:11:49.766Z,30.57
2022-11-25T03:14:18.003Z,34.60
2022-11-25T03:16:47.444Z,13.23
2022-11-25T03:19:15.478Z,18.17
2022-11-25T03:21:43.340Z,23.93
2022-11-25T03:24:11.385Z,25.40
2022-11-25T03:26:39.323Z,18.70
2022-11-25T03:29:07.652Z,14.90
2022-11-25T03:31:35.559Z,25.07
2022-11-25T03:34:04.878Z,21.47
2022-11-25T03:36:32.755Z,25.33
2022-11-25T03:39:00.660Z,40.83
2022-11-25T03:41:28.554Z,20.10
2022-11-25T03:43:56.512Z,9.10
2022-11-25T03:46:24.541Z,18.83
2022-11-25T03:48:52.430Z,18.93
2022-11-25T03:51:21.667Z,30.20
2022-11-25T03:53:49.584Z,33.60
2022-11-25T03:56:17.475Z,25.90
2022-11-25T03:58:45.335Z,26.87
2022-11-25T04:01:13.266Z,25.83
2022-11-25T04:03:41.208Z,22.03
2022-11-25T04:06:09.198Z,16.40
2022-11-25T04:08:38.443Z,17.30
2022-11-25T04:11:06.560Z,15.80
2022-11-25T04:13:33.414Z,8.83
2022-11-25T04:16:01.326Z,15.20
2022-11-25T04:18:29.227Z,14.23
2022-11-25T04:20:57.120Z,17.40
2022-11-25T04:23:25.100Z,29.63
2022-11-25T04:25:54.327Z,20.47
2022-11-25T04:28:23.574Z,29.53
2022-11-25T04:30:51.546Z,29.97
2022-11-25T04:33:19.598Z,34.40
2022-11-25T04:35:48.207Z,28.70
2022-11-25T04:38:16.130Z,13.63
2022-11-25T04:40:44.028Z,17.87
2022-11-25T04:43:13.279Z,16.03
2022-11-25T04:48:29.035Z,21.83
2022-11-25T04:50:56.903Z,23.20
2022-11-25T04:53:24.780Z,19.07
2022-11-25T04:55:52.682Z,20.23
2022-11-25T04:58:36.057Z,27.97
2022-11-25T05:01:04.023Z,25.97
2022-11-25T05:03:31.955Z,19.43
2022-11-25T05:05:59.866Z,13.33
2022-11-25T05:08:27.748Z,27.33
2022-11-25T05:10:55.662Z,23.60
2022-11-25T05:13:24.937Z,21.13
2022-11-25T05:15:52.908Z,34.13
2022-11-25T05:18:20.836Z,29.40
2022-11-25T05:20:48.756Z,22.73
2022-11-25T05:23:16.692Z,28.50
2022-11-25T05:25:44.547Z,29.27
2022-11-25T05:28:12.453Z,23.43
2022-11-25T05:30:42.580Z,23.47
2022-11-25T05:33:10.496Z,17.47
2022-11-25T05:35:38.429Z,25.93
2022-11-25T05:38:06.334Z,15.33
2022-11-25T05:40:34.228Z,24.20
2022-11-25T05:43:03.016Z,28.23
2022-11-25T05:45:30.924Z,31.87
2022-11-25T05:48:00.167Z,12.17
2022-11-25T05:50:28.182Z,20.03
2022-11-25T05:52:56.085Z,10.80
2022-11-25T05:55:23.999Z,11.30
2022-11-25T05:57:51.978Z,16.20
2022-11-25T06:00:26.282Z,17.53
2022-11-25T06:02:54.891Z,23.90
2022-11-25T06:05:24.236Z,20.03
2022-11-25T06:07:52.213Z,14.50
2022-11-25T06:10:20.388Z,16.87
2022-11-25T06:12:48.818Z,15.57
2022-11-25T06:15:16.685Z,19.73
2022-11-25T06:17:44.531Z,12.80
2022-11-25T06:20:12.713Z,26.40
2022-11-25T06:22:41.942Z,21.47
2022-11-25T06:25:10.433Z,25.07
2022-11-25T06:28:04.512Z,28.00
2022-11-25T06:30:26.282Z,25.47
2022-11-25T06:32:55.435Z,34.80
2022-11-25T06:35:23.324Z,26.43
2022-11-25T06:37:52.669Z,23.23
2022-11-25T06:40:20.593Z,33.20
2022-11-25T06:42:48.487Z,21.17
2022-11-25T06:45:16.547Z,22.33
2022-11-25T06:47:44.415Z,22.57
2022-11-25T06:50:12.402Z,24.40
2022-11-25T06:52:40.298Z,21.27
2022-11-25T06:55:10.272Z,12.33
2022-11-25T06:57:38.230Z,21.30
2022-11-25T07:00:07.855Z,16.80
2022-11-25T07:02:40.883Z,10.67
2022-11-25T07:05:10.968Z,14.00
2022-11-25T07:07:38.942Z,15.80
2022-11-25T07:10:09.745Z,10.47
2022-11-25T07:12:37.635Z,22.33
2022-11-25T07:15:06.498Z,12.80
2022-11-25T07:17:34.425Z,22.53
2022-11-25T07:20:02.294Z,18.60
2022-11-25T07:22:30.200Z,26.10
2022-11-25T07:24:58.095Z,22.10
2022-11-25T07:27:27.668Z,30.93
2022-11-25T07:30:29.105Z,15.70
2022-11-25T07:32:43.747Z,12.43
2022-11-25T07:35:11.620Z,22.03
2022-11-25T07:37:39.515Z,17.77
2022-11-25T07:40:08.608Z,13.73
2022-11-25T07:42:37.876Z,15.53
2022-11-25T07:45:06.565Z,14.07
2022-11-25T07:47:35.097Z,26.80
2022-11-25T07:50:02.985Z,21.33
2022-11-25T07:52:30.839Z,19.87
2022-11-25T07:54:58.783Z,35.20
2022-11-25T07:57:26.720Z,33.47
2022-11-25T07:59:55.975Z,31.07
2022-11-25T08:02:23.920Z,18.93
2022-11-25T08:04:52.159Z,30.77
2022-11-25T08:07:20.086Z,26.33
2022-11-25T08:09:47.953Z,27.03
2022-11-25T08:12:15.907Z,27.10
2022-11-25T08:14:43.794Z,15.97
2022-11-25T08:17:13.074Z,26.50
2022-11-25T08:19:41.403Z,26.97
2022-11-25T08:22:09.281Z,27.23
2022-11-25T08:24:37.132Z,25.00
2022-11-25T08:27:05.178Z,32.80
2022-11-25T08:29:33.151Z,23.77
2022-11-25T08:32:01.030Z,29.27
2022-11-25T08:34:30.296Z,23.00
2022-11-25T08:36:58.236Z,23.90
2022-11-25T08:39:51.059Z,21.97
2022-11-25T08:42:14.032Z,33.93
2022-11-25T08:44:42.140Z,27.37
2022-11-25T08:47:10.738Z,28.43
2022-11-25T08:49:41.716Z,23.53
2022-11-25T08:52:10.279Z,26.17
2022-11-25T08:54:38.381Z,33.00
2022-11-25T08:57:06.442Z,26.53
2022-11-25T08:59:34.528Z,23.97
2022-11-25T09:02:02.688Z,14.90
2022-11-25T09:04:30.609Z,19.10
2022-11-25T09:06:59.880Z,22.00
2022-11-25T09:09:27.973Z,29.43
2022-11-25T09:11:55.981Z,26.43
2022-11-25T09:14:23.920Z,23.97
2022-11-25T09:16:51.919Z,32.43
2022-11-25T09:19:20.912Z,26.90
2022-11-25T09:21:48.809Z,27.10
2022-11-25T09:24:18.099Z,23.83
2022-11-25T09:26:46.027Z,18.60
2022-11-25T09:29:14.227Z,28.03
2022-11-25T09:31:42.298Z,31.97
2022-11-25T09:34:10.750Z,21.17
2022-11-25T09:36:38.589Z,24.30
2022-11-25T09:39:06.610Z,26.90
2022-11-25T09:42:01.917Z,29.30
2022-11-25T09:44:55.932Z,28.20
2022-11-25T09:47:25.684Z,29.90
2022-11-25T09:50:01.496Z,31.13
2022-11-25T09:52:33.605Z,29.97
2022-11-25T09:55:05.720Z,28.47
2022-11-25T09:57:43.809Z,18.23
2022-11-25T10:00:13.735Z,18.87
2022-11-25T10:02:42.997Z,30.37
2022-11-25T10:05:14.090Z,20.50
2022-11-25T10:07:43.933Z,18.17
2022-11-25T10:10:17.067Z,17.83
2022-11-25T10:12:46.357Z,25.97
2022-11-25T10:15:16.862Z,23.03
2022-11-25T10:17:46.657Z,14.60
2022-11-25T10:20:16.332Z,20.00
2022-11-25T10:22:45.107Z,29.93
2022-11-25T10:25:15.492Z,22.33
2022-11-25T10:27:44.951Z,24.97
2022-11-25T10:30:18.200Z,29.93
2022-11-25T10:32:48.307Z,23.47
2022-11-25T10:35:21.823Z,17.20
2022-11-25T10:37:49.915Z,20.63
2022-11-25T10:40:18.088Z,17.13
2022-11-25T10:42:46.064Z,39.73
2022-11-25T10:45:15.493Z,21.37
2022-11-25T10:48:06.264Z,23.30
2022-11-25T10:50:35.351Z,23.03
2022-11-25T10:53:05.023Z,24.97
2022-11-25T10:55:33.975Z,20.37
2022-11-25T10:58:02.092Z,13.67
2022-11-25T11:00:33.163Z,22.07
2022-11-25T11:03:02.453Z,21.43
2022-11-25T11:05:31.307Z,24.60
2022-11-25T11:08:10.429Z,10.80
2022-11-25T11:10:38.325Z,21.27
2022-11-25T11:13:06.971Z,16.40
2022-11-25T11:15:47.120Z,10.67
2022-11-25T11:18:21.923Z,23.53
2022-11-25T11:20:50.702Z,12.63
2022-11-25T11:23:18.870Z,19.17
2022-11-25T11:25:56.682Z,22.47
2022-11-25T11:28:30.826Z,18.87
2022-11-25T11:31:01.534Z,15.57
2022-11-25T11:33:37.091Z,24.13
2022-11-25T11:36:12.738Z,15.60
2022-11-25T11:38:44.505Z,13.47
2022-11-25T11:41:16.119Z,20.43
2022-11-25T11:43:56.892Z,15.30
2022-11-25T11:46:33.915Z,15.20
2022-11-25T11:49:07.170Z,22.43
2022-11-25T11:51:37.938Z,21.23
2022-11-25T11:54:08.154Z,16.80
2022-11-25T11:56:39.192Z,16.60
2022-11-25T11:59:22.791Z,12.93
2022-11-25T12:02:04.135Z,22.27
2022-11-25T12:04:35.045Z,16.97
2022-11-25T12:07:06.213Z,17.57
2022-11-25T12:09:35.456Z,12.50
2022-11-25T12:12:05.580Z,13.93
2022-11-25T12:14:36.920Z,13.77
2022-11-25T12:17:08.642Z,13.83
2022-11-25T12:19:40.241Z,18.37
2022-11-25T12:22:09.810Z,20.57
2022-11-25T12:24:41.555Z,18.73
2022-11-25T12:27:11.689Z,8.77
2022-11-25T12:29:40.996Z,7.60
2022-11-25T12:32:24.109Z,22.70
2022-11-25T12:34:55.426Z,12.30
2022-11-25T12:37:28.602Z,13.83
2022-11-25T12:39:58.495Z,14.57
2022-11-25T12:42:26.415Z,11.60
2022-11-25T12:45:01.949Z,17.23
2022-11-25T12:47:31.262Z,15.63
2022-11-25T12:49:59.289Z,16.93
2022-11-25T12:52:52.775Z,20.30
2022-11-25T12:55:21.467Z,15.87
2022-11-25T12:58:10.500Z,16.47
2022-11-25T13:01:09.618Z,10.87
2022-11-25T13:04:01.750Z,16.63
2022-11-25T13:06:59.315Z,19.47
2022-11-25T13:09:42.062Z,16.57
2022-11-25T13:12:15.393Z,16.17
2022-11-25T13:15:05.807Z,19.43
2022-11-25T13:17:35.300Z,14.27
2022-11-25T13:20:49.041Z,22.00
2022-11-25T13:23:31.948Z,28.80
2022-11-25T13:26:48.799Z,12.57
2022-11-25T13:29:59.133Z,8.93
2022-11-25T13:32:40.618Z,7.57
2022-11-25T13:35:36.664Z,5.87
2022-11-25T13:38:49.059Z,10.90
2022-11-25T13:41:26.247Z,9.07
2022-11-25T13:44:01.611Z,7.67
2022-11-25T13:46:39.639Z,15.83
2022-11-25T13:49:08.127Z,21.03
2022-11-25T13:51:36.016Z,12.27
2022-11-25T13:54:05.753Z,10.35
2022-11-25T13:56:36.102Z,8.87
2022-11-25T13:59:37.492Z,14.17
2022-11-25T14:02:45.205Z,8.30
2022-11-25T14:05:33.502Z,11.43
2022-11-25T14:08:08.076Z,11.90
2022-11-25T14:10:45.715Z,9.90
2022-11-25T14:13:27.743Z,13.23
2022-11-25T14:16:07.196Z,16.23
2022-11-25T14:19:21.771Z,12.27
2022-11-25T14:21:45.608Z,12.07
2022-11-25T14:24:21.072Z,15.27
2022-11-25T14:26:52.569Z,11.50
2022-11-25T14:29:24.501Z,14.87
2022-11-25T14:31:55.862Z,14.37
2022-11-25T14:34:25.676Z,10.93
2022-11-25T14:36:55.242Z,13.60
2022-11-25T14:39:25.821Z,14.50
2022-11-25T14:41:57.550Z,12.20
2022-11-25T14:44:28.257Z,19.47
2022-11-25T14:46:56.885Z,19.87
2022-11-25T14:49:46.642Z,6.03
2022-11-25T14:52:17.677Z,9.03
2022-11-25T14:54:45.651Z,10.00
2022-11-25T14:57:13.577Z,24.40
2022-11-25T14:59:45.615Z,10.63
2022-11-25T15:02:24.660Z,16.90
2022-11-25T15:04:52.552Z,14.30
2022-11-25T15:07:26.309Z,14.33
2022-11-25T15:09:57.535Z,20.50
2022-11-25T15:12:25.430Z,21.23
2022-11-25T15:14:55.242Z,18.23
2022-11-25T15:17:26.903Z,22.27
2022-11-25T15:19:55.115Z,19.87
2022-11-25T15:22:24.458Z,17.70
2022-11-25T15:24:55.554Z,25.53
2022-11-25T15:27:26.213Z,28.60
2022-11-25T15:29:56.721Z,28.73
2022-11-25T15:32:26.392Z,22.10
2022-11-25T15:34:54.634Z,25.07
2022-11-25T15:37:24.050Z,18.50
2022-11-25T15:39:52.040Z,28.00
2022-11-25T15:42:21.317Z,19.63
2022-11-25T15:44:50.884Z,20.77
2022-11-25T15:47:24.366Z,23.37
2022-11-25T15:49:58.175Z,29.73
2022-11-25T15:52:26.138Z,25.73
2022-11-25T15:54:54.023Z,25.70
2022-11-25T15:57:24.105Z,25.33
2022-11-25T16:00:03.659Z,32.93
2022-11-25T16:02:34.899Z,28.37
2022-11-25T16:05:29.320Z,26.70
2022-11-25T16:08:19.001Z,32.37
2022-11-25T16:10:52.017Z,37.83
2022-11-25T16:13:29.201Z,32.53
2022-11-25T16:15:58.225Z,33.63
2022-11-25T16:18:40.428Z,30.87
2022-11-25T16:21:09.800Z,33.63
2022-11-25T16:23:38.791Z,35.47
2022-11-25T16:26:08.101Z,52.77
2022-11-25T16:28:35.946Z,42.77
2022-11-25T16:31:03.973Z,42.07
2022-11-25T16:33:33.217Z,23.23
2022-11-25T16:36:03.237Z,26.67
2022-11-25T16:38:34.537Z,25.43
2022-11-25T16:41:02.426Z,35.10
2022-11-25T16:43:30.303Z,26.87
2022-11-25T16:45:58.888Z,19.10
2022-11-25T16:48:26.906Z,30.53
2022-11-25T16:50:56.199Z,29.03
2022-11-25T16:53:24.174Z,45.33
2022-11-25T16:55:52.068Z,23.23
2022-11-25T16:58:20.848Z,24.80
2022-11-25T17:00:55.284Z,25.27
2022-11-25T17:03:26.127Z,16.83
2022-11-25T17:05:55.186Z,29.33
2022-11-25T17:08:24.473Z,35.90
2022-11-25T17:10:52.421Z,33.27
2022-11-25T17:13:21.844Z,32.23
2022-11-25T17:15:50.001Z,51.20
2022-11-25T17:18:19.229Z,39.10
2022-11-25T17:20:47.169Z,38.10
2022-11-25T17:23:16.387Z,36.73
2022-11-25T17:25:47.122Z,24.90
2022-11-25T17:28:16.120Z,32.77
2022-11-25T17:30:44.210Z,24.17
2022-11-25T17:33:14.581Z,35.73
2022-11-25T17:35:42.486Z,31.17
2022-11-25T17:38:13.178Z,19.63
2022-11-25T17:40:42.801Z,35.57
2022-11-25T17:43:14.318Z,31.57
2022-11-25T17:45:42.345Z,31.40
2022-11-25T17:48:11.615Z,30.13
2022-11-25T17:50:39.744Z,18.50
2022-11-25T17:53:07.682Z,25.30
2022-11-25T17:55:36.346Z,20.70
2022-11-25T17:58:04.283Z,18.07
2022-11-25T18:00:34.348Z,16.87
2022-11-25T18:03:02.453Z,22.60
2022-11-25T18:05:30.471Z,18.87
2022-11-25T18:07:58.456Z,13.87
2022-11-25T18:10:27.538Z,18.67
2022-11-25T18:12:56.128Z,18.03
2022-11-25T18:15:25.130Z,14.73
2022-11-25T18:17:57.224Z,15.13
2022-11-25T18:20:26.239Z,22.17
2022-11-25T18:22:54.202Z,8.63
2022-11-25T18:25:23.586Z,124.47
2022-11-25T18:27:54.142Z,196.20
2022-11-25T18:30:24.104Z,138.73
2022-11-25T18:32:52.026Z,72.47
2022-11-25T18:35:22.473Z,68.37
2022-11-25T18:37:51.070Z,96.50
2022-11-25T18:40:19.443Z,191.73
2022-11-25T18:42:49.607Z,98.10
2022-11-25T18:45:19.416Z,102.77
2022-11-25T18:47:47.874Z,33.20
2022-11-25T18:50:18.015Z,26.30
2022-11-25T18:52:47.367Z,66.07
2022-11-25T18:55:16.814Z,75.80
2022-11-25T18:57:45.797Z,34.57
2022-11-25T19:00:31.727Z,27.60
2022-11-25T19:03:01.224Z,31.53
2022-11-25T19:05:31.570Z,33.07
2022-11-25T19:08:01.123Z,21.10
2022-11-25T19:10:31.366Z,23.10
2022-11-25T19:13:02.405Z,16.13
2022-11-25T19:15:31.404Z,15.80
2022-11-25T19:18:01.083Z,20.70
2022-11-25T19:20:30.384Z,31.37
2022-11-25T19:23:01.324Z,28.70
2022-11-25T19:25:29.738Z,18.83
2022-11-25T19:27:58.942Z,22.07
2022-11-25T19:30:27.964Z,18.60
2022-11-25T19:32:56.676Z,33.07
2022-11-25T19:35:26.787Z,24.33
2022-11-25T19:37:54.691Z,39.30
2022-11-25T19:40:25.251Z,50.23
2022-11-25T19:42:53.199Z,31.83
2022-11-25T19:45:21.361Z,27.60
2022-11-25T19:47:50.849Z,23.60
2022-11-25T19:50:21.681Z,15.50
2022-11-25T19:52:49.941Z,25.63
2022-11-25T19:55:18.956Z,21.13
2022-11-25T19:57:48.465Z,41.43
2022-11-25T20:00:17.771Z,20.27
2022-11-25T20:02:45.938Z,16.67
2022-11-25T20:05:17.087Z,29.37
2022-11-25T20:07:45.178Z,24.13
2022-11-25T20:10:17.482Z,17.93
2022-11-25T20:12:45.464Z,30.37
2022-11-25T20:15:14.728Z,30.90
2022-11-25T20:17:44.497Z,22.60
2022-11-25T20:20:15.603Z,19.50
2022-11-25T20:22:45.036Z,19.80
2022-11-25T20:25:12.991Z,21.13
2022-11-25T20:27:41.560Z,35.37
2022-11-25T20:30:17.487Z,29.53
2022-11-25T20:32:45.427Z,22.93
2022-11-25T20:35:13.443Z,28.90
2022-11-25T20:37:51.107Z,34.27
2022-11-25T20:40:20.957Z,30.40
2022-11-25T20:42:49.772Z,43.63
2022-11-25T20:45:19.811Z,46.03
2022-11-25T20:47:49.082Z,31.93
2022-11-25T20:50:17.145Z,32.60
2022-11-25T20:52:45.050Z,22.10
2022-11-25T20:55:18.523Z,23.47
2022-11-25T20:57:46.449Z,29.43
2022-11-25T21:00:20.220Z,36.97
2022-11-25T21:02:48.821Z,29.13
2022-11-25T21:05:17.047Z,36.87
2022-11-25T21:07:44.976Z,46.60
2022-11-25T21:10:22.015Z,28.70
2022-11-25T21:12:49.945Z,32.90
2022-11-25T21:15:21.223Z,35.03
2022-11-25T21:17:49.579Z,37.73
2022-11-25T21:20:18.056Z,29.30
2022-11-25T21:22:47.245Z,44.00
2022-11-25T21:25:16.284Z,33.63
2022-11-25T21:27:44.291Z,32.00
2022-11-25T21:30:20.538Z,31.47
2022-11-25T21:32:48.571Z,36.37
2022-11-25T21:35:16.670Z,31.83
2022-11-25T21:37:44.788Z,28.33
2022-11-25T21:40:22.712Z,27.73
2022-11-25T21:42:50.599Z,27.60
2022-11-25T21:45:19.878Z,22.87
2022-11-25T21:47:47.803Z,26.00
2022-11-25T21:50:17.041Z,23.23
2022-11-25T21:52:44.948Z,17.53
2022-11-25T21:55:13.291Z,29.00
2022-11-25T21:57:41.326Z,29.50
2022-11-25T22:00:21.251Z,15.20
2022-11-25T22:02:49.793Z,30.80
2022-11-25T22:05:18.847Z,25.30
2022-11-25T22:07:46.860Z,31.57
2022-11-25T22:10:16.433Z,20.73
2022-11-25T22:12:45.165Z,24.00
2022-11-25T22:15:15.505Z,25.00
2022-11-25T22:17:45.037Z,31.70
2022-11-25T22:20:25.774Z,37.83
2022-11-25T22:22:53.748Z,35.47
2022-11-25T22:25:21.682Z,38.67
2022-11-25T22:27:51.080Z,27.40
2022-11-25T22:30:24.589Z,35.47
2022-11-25T22:32:59.569Z,24.23
2022-11-25T22:35:27.461Z,36.30
2022-11-25T22:37:55.719Z,23.43
2022-11-25T22:40:23.721Z,29.03
2022-11-25T22:42:51.740Z,24.87
2022-11-25T22:45:24.696Z,27.37
2022-11-25T22:47:52.660Z,27.40
2022-11-25T22:50:24.352Z,36.93
2022-11-25T22:52:52.317Z,23.57
2022-11-25T22:55:21.597Z,24.67
2022-11-25T22:57:49.727Z,20.57
2022-11-25T23:00:19.287Z,20.87
2022-11-25T23:02:47.452Z,14.63
2022-11-25T23:05:16.784Z,18.73
2022-11-25T23:07:46.206Z,19.03
2022-11-25T23:10:18.029Z,20.77
2022-11-25T23:12:45.964Z,19.77
2022-11-25T23:15:15.209Z,23.53
2022-11-25T23:17:45.705Z,14.53
2022-11-25T23:20:16.819Z,23.20
2022-11-25T23:22:46.411Z,20.20
2022-11-25T23:25:15.887Z,18.17
2022-11-25T23:27:44.048Z,12.07
2022-11-25T23:30:15.680Z,21.03
2022-11-25T23:32:43.662Z,22.63
2022-11-25T23:35:15.422Z,20.23
2022-11-25T23:37:45.023Z,17.43
2022-11-25T23:40:20.876Z,16.30
2022-11-25T23:42:48.798Z,25.20
2022-11-25T23:45:17.522Z,16.37
2022-11-25T23:47:46.103Z,19.67
2022-11-25T23:50:24.767Z,24.13
2022-11-25T23:52:55.720Z,19.13
2022-11-25T23:55:26.207Z,21.67
2022-11-25T23:57:54.110Z,20.90
